createdAt,value
2023-05-12T00:01:21.024Z,13.57
2023-05-12T00:03:47.754Z,13.58
2023-05-12T00:06:14.354Z,13.56
2023-05-12T00:08:40.775Z,13.57
2023-05-12T00:11:07.430Z,13.50
2023-05-12T00:13:34.053Z,13.56
2023-05-12T00:16:00.585Z,13.56
2023-05-12T00:18:28.587Z,13.61
2023-05-12T00:20:55.619Z,13.53
2023-05-12T00:23:22.766Z,13.57
2023-05-12T00:25:49.362Z,13.61
2023-05-12T00:28:17.859Z,13.60
2023-05-12T00:30:44.459Z,13.61
2023-05-12T00:33:11.098Z,13.62
2023-05-12T00:35:37.582Z,13.55
2023-05-12T00:38:04.202Z,13.57
2023-05-12T00:40:31.045Z,13.52
2023-05-12T00:42:57.602Z,13.56
2023-05-12T00:45:24.406Z,13.55
2023-05-12T00:47:51.869Z,13.48
2023-05-12T00:50:18.893Z,13.51
2023-05-12T00:52:46.733Z,13.43
2023-05-12T00:55:13.256Z,13.44
2023-05-12T00:57:40.987Z,13.41
2023-05-12T01:00:08.016Z,13.43
2023-05-12T01:02:34.573Z,13.45
2023-05-12T01:05:01.092Z,13.42
2023-05-12T01:07:27.778Z,13.47
2023-05-12T01:09:57.962Z,13.41
2023-05-12T01:12:25.370Z,13.42
2023-05-12T01:14:53.217Z,13.43
2023-05-12T01:17:22.342Z,13.38
2023-05-12T01:19:51.158Z,13.32
2023-05-12T01:22:18.296Z,13.38
2023-05-12T01:25:03.165Z,13.33
2023-05-12T01:27:30.326Z,13.41
2023-05-12T01:29:58.740Z,13.42
2023-05-12T01:32:25.262Z,13.43
2023-05-12T01:34:51.917Z,13.46
2023-05-12T01:37:18.580Z,13.41
2023-05-12T01:39:45.066Z,13.46
2023-05-12T01:42:11.595Z,13.39
2023-05-12T01:44:38.033Z,13.39
2023-05-12T01:47:04.681Z,13.40
2023-05-12T01:49:31.162Z,13.35
2023-05-12T01:51:57.549Z,13.33
2023-05-12T01:54:24.002Z,13.36
2023-05-12T01:56:50.470Z,13.39
2023-05-12T01:59:16.938Z,13.37
2023-05-12T02:01:43.516Z,13.38
2023-05-12T02:04:10.373Z,13.30
2023-05-12T02:06:36.883Z,13.32
2023-05-12T02:09:03.346Z,13.31
2023-05-12T02:11:29.821Z,13.23
2023-05-12T02:13:56.417Z,13.32
2023-05-12T02:16:22.891Z,13.19
2023-05-12T02:18:49.404Z,13.27
2023-05-12T02:21:16.014Z,13.27
2023-05-12T02:23:42.485Z,13.29
2023-05-12T02:26:08.952Z,13.28
2023-05-12T02:28:36.512Z,13.20
2023-05-12T02:31:03.584Z,13.21
2023-05-12T02:33:30.352Z,13.18
2023-05-12T02:35:56.824Z,13.22
2023-05-12T02:38:23.410Z,13.23
2023-05-12T02:40:49.862Z,13.29
2023-05-12T02:43:16.312Z,13.30
2023-05-12T02:45:42.868Z,13.33
2023-05-12T02:48:09.357Z,13.29
2023-05-12T02:50:35.943Z,13.30
2023-05-12T02:53:02.389Z,13.22
2023-05-12T02:55:30.115Z,13.20
2023-05-12T02:57:56.971Z,13.21
2023-05-12T03:00:23.525Z,13.24
2023-05-12T03:02:50.199Z,13.24
2023-05-12T03:05:16.710Z,13.28
2023-05-12T03:07:43.265Z,13.27
2023-05-12T03:10:10.445Z,13.19
2023-05-12T03:12:37.143Z,13.18
2023-05-12T03:15:04.734Z,13.17
2023-05-12T03:17:31.473Z,13.17
2023-05-12T03:19:58.015Z,13.13
2023-05-12T03:22:24.454Z,13.15
2023-05-12T03:24:51.641Z,13.10
2023-05-12T03:27:18.087Z,12.93
2023-05-12T03:29:44.522Z,12.95
2023-05-12T03:32:10.923Z,13.01
2023-05-12T03:34:37.376Z,12.98
2023-05-12T03:37:03.882Z,12.91
2023-05-12T03:39:30.299Z,12.90
2023-05-12T03:41:56.696Z,12.87
2023-05-12T03:44:23.276Z,12.88
2023-05-12T03:46:49.758Z,12.92
2023-05-12T03:49:16.371Z,12.92
2023-05-12T03:51:42.777Z,12.93
2023-05-12T03:54:09.285Z,12.94
2023-05-12T03:56:35.857Z,12.92
2023-05-12T03:59:02.350Z,12.95
2023-05-12T04:01:28.807Z,12.86
2023-05-12T04:03:55.346Z,12.90
2023-05-12T04:06:21.927Z,12.98
2023-05-12T04:08:48.340Z,13.01
2023-05-12T04:11:14.883Z,13.01
2023-05-12T04:13:41.335Z,13.03
2023-05-12T04:16:08.294Z,13.03
2023-05-12T04:18:36.611Z,13.11
2023-05-12T04:21:03.287Z,13.09
2023-05-12T04:23:29.897Z,13.12
2023-05-12T04:25:56.395Z,13.09
2023-05-12T04:28:22.841Z,13.12
2023-05-12T04:30:49.381Z,13.07
2023-05-12T04:33:15.782Z,13.13
2023-05-12T04:35:42.180Z,13.14
2023-05-12T04:38:08.585Z,13.16
2023-05-12T04:40:35.331Z,13.19
2023-05-12T04:43:01.918Z,13.17
2023-05-12T04:45:28.417Z,13.17
2023-05-12T04:47:54.850Z,13.16
2023-05-12T04:50:21.317Z,13.24
2023-05-12T04:52:47.932Z,13.25
2023-05-12T04:55:14.379Z,13.20
2023-05-12T04:57:41.515Z,13.18
2023-05-12T05:00:09.153Z,13.17
2023-05-12T05:02:35.937Z,13.06
2023-05-12T05:05:02.501Z,13.16
2023-05-12T05:07:29.014Z,13.19
2023-05-12T05:09:55.492Z,13.24
2023-05-12T05:12:21.942Z,13.22
2023-05-12T05:14:48.442Z,13.21
2023-05-12T05:17:15.020Z,13.17
2023-05-12T05:19:55.059Z,13.12
2023-05-12T05:22:25.543Z,13.20
2023-05-12T05:24:52.160Z,13.19
2023-05-12T05:27:19.056Z,13.28
2023-05-12T05:29:45.676Z,13.30
2023-05-12T05:32:12.227Z,13.38
2023-05-12T05:34:38.764Z,13.40
2023-05-12T05:37:05.682Z,13.44
2023-05-12T05:39:32.300Z,13.41
2023-05-12T05:41:58.809Z,13.43
2023-05-12T05:44:25.701Z,13.51
2023-05-12T05:46:52.293Z,13.52
2023-05-12T05:49:19.642Z,13.41
2023-05-12T05:51:46.108Z,13.50
2023-05-12T05:54:12.615Z,13.48
2023-05-12T05:56:39.109Z,13.54
2023-05-12T05:59:05.760Z,13.57
2023-05-12T06:01:32.845Z,13.68
2023-05-12T06:03:59.555Z,13.78
2023-05-12T06:06:26.185Z,13.83
2023-05-12T06:08:53.798Z,13.89
2023-05-12T06:11:21.280Z,13.90
2023-05-12T06:13:47.695Z,13.89
2023-05-12T06:16:14.185Z,13.99
2023-05-12T06:18:40.709Z,14.06
2023-05-12T06:21:07.312Z,14.14
2023-05-12T06:23:33.742Z,14.16
2023-05-12T06:26:00.218Z,14.11
2023-05-12T06:28:26.672Z,14.16
2023-05-12T06:30:53.121Z,14.26
2023-05-12T06:33:19.587Z,14.15
2023-05-12T06:35:46.211Z,14.18
2023-05-12T06:38:12.686Z,14.28
2023-05-12T06:40:39.143Z,14.43
2023-05-12T06:43:05.833Z,14.45
2023-05-12T06:45:32.248Z,14.48
2023-05-12T06:47:58.772Z,14.53
2023-05-12T06:50:25.213Z,14.66
2023-05-12T06:52:51.607Z,14.69
2023-05-12T06:55:20.607Z,14.65
2023-05-12T06:57:47.840Z,14.72
2023-05-12T07:00:14.704Z,14.81
2023-05-12T07:02:41.386Z,14.85
2023-05-12T07:05:08.618Z,14.81
2023-05-12T07:07:36.050Z,14.84
2023-05-12T07:10:02.570Z,14.79
2023-05-12T07:12:29.067Z,14.95
2023-05-12T07:14:55.842Z,14.89
2023-05-12T07:17:22.386Z,14.98
2023-05-12T07:19:48.876Z,15.04
2023-05-12T07:22:15.476Z,15.04
2023-05-12T07:24:42.162Z,15.13
2023-05-12T07:27:08.782Z,15.17
2023-05-12T07:29:35.260Z,15.26
2023-05-12T07:32:01.773Z,15.23
2023-05-12T07:34:28.223Z,15.23
2023-05-12T07:36:54.624Z,15.31
2023-05-12T07:39:23.720Z,15.24
2023-05-12T07:41:51.084Z,15.26
2023-05-12T07:44:17.607Z,15.31
2023-05-12T07:46:44.416Z,15.36
2023-05-12T07:49:10.865Z,15.53
2023-05-12T07:51:37.526Z,15.59
2023-05-12T07:54:04.880Z,15.83
2023-05-12T07:56:31.386Z,16.01
2023-05-12T07:58:57.840Z,16.18
2023-05-12T08:01:24.428Z,16.23
2023-05-12T08:03:51.399Z,16.40
2023-05-12T08:06:18.542Z,16.58
2023-05-12T08:08:45.039Z,16.57
2023-05-12T08:11:12.594Z,16.56
2023-05-12T08:13:39.151Z,16.58
2023-05-12T08:16:05.633Z,16.70
2023-05-12T08:18:32.274Z,16.76
2023-05-12T08:20:58.894Z,16.97
2023-05-12T08:23:25.406Z,17.12
2023-05-12T08:25:51.868Z,17.34
2023-05-12T08:28:18.306Z,17.45
2023-05-12T08:30:45.553Z,17.40
2023-05-12T08:33:12.518Z,17.55
2023-05-12T08:35:39.269Z,17.68
2023-05-12T08:38:06.200Z,17.81
2023-05-12T08:40:37.425Z,17.95
2023-05-12T08:43:13.626Z,17.95
2023-05-12T08:45:40.470Z,18.18
2023-05-12T08:48:09.665Z,18.55
2023-05-12T08:50:36.807Z,18.68
2023-05-12T08:53:04.345Z,18.89
2023-05-12T08:55:33.910Z,18.96
2023-05-12T08:58:03.003Z,19.04
2023-05-12T09:00:31.307Z,19.25
2023-05-12T09:02:59.413Z,19.33
2023-05-12T09:05:27.232Z,19.44
2023-05-12T09:07:55.328Z,19.36
2023-05-12T09:10:34.450Z,19.56
2023-05-12T09:13:20.512Z,19.23
2023-05-12T09:15:48.757Z,19.50
2023-05-12T09:18:15.236Z,19.47
2023-05-12T09:20:41.731Z,19.77
2023-05-12T09:23:26.434Z,20.12
2023-05-12T09:26:03.877Z,20.31
2023-05-12T09:28:39.228Z,20.57
2023-05-12T09:31:15.905Z,20.84
2023-05-12T09:33:42.391Z,21.17
2023-05-12T09:36:08.868Z,21.21
2023-05-12T09:38:35.454Z,21.15
2023-05-12T09:41:01.860Z,21.51
2023-05-12T09:43:28.278Z,21.62
2023-05-12T09:45:55.638Z,21.39
2023-05-12T09:48:22.220Z,21.30
2023-05-12T09:50:52.765Z,21.30
2023-05-12T09:53:20.365Z,21.63
2023-05-12T09:55:47.703Z,21.64
2023-05-12T09:58:18.670Z,21.69
2023-05-12T10:03:17.807Z,21.54
2023-05-12T10:05:58.000Z,21.55
2023-05-12T10:08:34.365Z,21.85
2023-05-12T10:11:02.311Z,21.71
2023-05-12T10:13:31.429Z,21.67
2023-05-12T10:15:59.150Z,21.63
2023-05-12T10:18:25.724Z,21.80
2023-05-12T10:20:53.842Z,21.89
2023-05-12T10:23:20.502Z,22.27
2023-05-12T10:25:47.813Z,22.36
2023-05-12T10:28:14.246Z,22.62
2023-05-12T10:30:41.485Z,22.98
2023-05-12T10:33:09.076Z,23.28
2023-05-12T10:35:36.555Z,23.22
2023-05-12T10:38:07.473Z,23.26
2023-05-12T10:40:34.194Z,23.15
2023-05-12T10:43:03.626Z,23.51
2023-05-12T10:45:35.913Z,23.80
2023-05-12T10:48:07.052Z,23.82
2023-05-12T10:50:33.803Z,23.69
2023-05-12T10:53:00.433Z,24.12
2023-05-12T10:55:34.907Z,24.00
2023-05-12T10:58:10.710Z,24.43
2023-05-12T11:00:50.517Z,24.69
2023-05-12T11:03:19.934Z,24.80
2023-05-12T11:05:46.928Z,24.70
2023-05-12T11:08:14.390Z,24.65
2023-05-12T11:10:42.406Z,24.40
2023-05-12T11:13:09.454Z,24.12
2023-05-12T11:15:35.908Z,23.93
2023-05-12T11:18:03.310Z,23.35
2023-05-12T11:20:31.000Z,23.17
2023-05-12T11:22:57.841Z,22.92
2023-05-12T11:25:27.174Z,23.17
2023-05-12T11:27:53.524Z,22.69
2023-05-12T11:30:20.097Z,22.76
2023-05-12T11:32:46.866Z,22.64
2023-05-12T11:35:15.514Z,22.65
2023-05-12T11:37:43.627Z,22.82
2023-05-12T11:40:13.761Z,22.90
2023-05-12T11:42:41.300Z,23.03
2023-05-12T11:45:08.210Z,23.05
2023-05-12T11:47:34.720Z,22.86
2023-05-12T11:50:03.348Z,22.73
2023-05-12T11:52:29.767Z,22.74
2023-05-12T11:55:00.919Z,22.71
2023-05-12T11:57:29.468Z,23.11
2023-05-12T12:00:03.849Z,23.23
2023-05-12T12:02:30.674Z,23.47
2023-05-12T12:04:57.824Z,23.37
2023-05-12T12:07:37.977Z,22.97
2023-05-12T12:10:30.815Z,23.28
2023-05-12T12:12:57.219Z,23.60
2023-05-12T12:15:23.776Z,23.22
2023-05-12T12:17:50.709Z,23.46
2023-05-12T12:20:18.692Z,23.61
2023-05-12T12:22:45.134Z,23.78
2023-05-12T12:25:11.748Z,24.07
2023-05-12T12:27:38.598Z,24.22
2023-05-12T12:30:05.523Z,24.57
2023-05-12T12:32:31.981Z,24.90
2023-05-12T12:35:00.107Z,25.19
2023-05-12T12:37:26.530Z,25.59
2023-05-12T12:39:53.379Z,25.86
2023-05-12T12:42:19.821Z,25.92
2023-05-12T12:44:47.910Z,25.46
2023-05-12T12:47:14.428Z,24.95
2023-05-12T12:49:40.879Z,25.03
2023-05-12T12:52:07.481Z,25.28
2023-05-12T12:54:34.356Z,25.51
2023-05-12T12:57:00.934Z,26.08
2023-05-12T12:59:27.510Z,26.45
2023-05-12T13:01:54.061Z,26.35
2023-05-12T13:04:22.940Z,26.51
2023-05-12T13:06:49.637Z,27.47
2023-05-12T13:09:19.004Z,27.84
2023-05-12T13:11:46.925Z,28.09
2023-05-12T13:14:13.378Z,27.92
2023-05-12T13:16:39.957Z,28.25
2023-05-12T13:19:06.786Z,28.10
2023-05-12T13:21:34.090Z,27.61
2023-05-12T13:24:00.604Z,27.84
2023-05-12T13:26:27.067Z,28.38
2023-05-12T13:28:53.550Z,28.99
2023-05-12T13:31:20.095Z,29.10
2023-05-12T13:33:46.676Z,30.05
2023-05-12T13:36:13.312Z,30.16
2023-05-12T13:38:42.075Z,29.77
2023-05-12T13:41:08.517Z,29.37
2023-05-12T13:43:34.984Z,30.04
2023-05-12T13:46:01.505Z,29.39
2023-05-12T13:48:27.924Z,29.98
2023-05-12T13:50:54.343Z,30.66
2023-05-12T13:53:20.794Z,30.58
2023-05-12T13:55:47.268Z,30.56
2023-05-12T13:58:13.763Z,30.64
2023-05-12T14:00:40.433Z,31.22
2023-05-12T14:03:06.892Z,31.44
2023-05-12T14:05:33.713Z,31.63
2023-05-12T14:08:00.322Z,31.92
2023-05-12T14:10:26.768Z,32.01
2023-05-12T14:12:53.209Z,31.17
2023-05-12T14:15:32.415Z,30.55
2023-05-12T14:20:37.502Z,28.34
2023-05-12T14:23:03.985Z,27.82
2023-05-12T14:25:30.839Z,28.08
2023-05-12T14:27:57.411Z,28.42
2023-05-12T14:30:24.333Z,29.21
2023-05-12T14:32:53.202Z,29.67
2023-05-12T14:35:20.347Z,29.81
2023-05-12T14:37:46.976Z,30.16
2023-05-12T14:40:14.017Z,30.29
2023-05-12T14:42:40.448Z,30.38
2023-05-12T14:45:08.017Z,30.29
2023-05-12T14:47:34.628Z,29.63
2023-05-12T14:50:01.101Z,29.93
2023-05-12T14:52:27.519Z,30.26
2023-05-12T14:54:54.526Z,30.89
2023-05-12T14:57:21.077Z,31.18
2023-05-12T14:59:47.536Z,31.04
2023-05-12T15:02:13.990Z,31.04
2023-05-12T15:04:40.487Z,31.44
2023-05-12T15:07:06.941Z,31.72
2023-05-12T15:09:33.380Z,31.69
2023-05-12T15:11:59.937Z,30.95
2023-05-12T15:14:26.427Z,30.19
2023-05-12T15:16:52.981Z,29.40
2023-05-12T15:19:21.277Z,28.59
2023-05-12T15:21:47.723Z,28.06
2023-05-12T15:24:14.185Z,28.41
2023-05-12T15:26:40.710Z,28.69
2023-05-12T15:29:07.339Z,29.14
2023-05-12T15:31:34.402Z,29.23
2023-05-12T15:34:00.945Z,28.83
2023-05-12T15:36:27.415Z,29.23
2023-05-12T15:38:53.826Z,29.42
2023-05-12T15:41:20.274Z,29.41
2023-05-12T15:43:46.909Z,29.12
2023-05-12T15:46:13.383Z,28.62
2023-05-12T15:48:39.900Z,28.11
2023-05-12T15:51:09.645Z,26.70
2023-05-12T15:53:36.280Z,25.76
2023-05-12T15:56:04.068Z,24.19
2023-05-12T15:58:30.717Z,23.31
2023-05-12T16:00:57.302Z,22.50
2023-05-12T16:03:23.946Z,21.95
2023-05-12T16:05:50.782Z,21.64
2023-05-12T16:08:17.310Z,21.09
2023-05-12T16:10:43.743Z,20.96
2023-05-12T16:13:10.200Z,20.43
2023-05-12T16:15:36.742Z,20.43
2023-05-12T16:18:03.353Z,20.22
2023-05-12T16:20:29.871Z,20.10
2023-05-12T16:22:56.349Z,20.03
2023-05-12T16:25:23.107Z,20.05
2023-05-12T16:27:49.842Z,20.05
2023-05-12T16:30:19.137Z,20.07
2023-05-12T16:32:47.383Z,19.77
2023-05-12T16:35:14.024Z,19.72
2023-05-12T16:37:40.494Z,19.62
2023-05-12T16:40:07.694Z,19.66
2023-05-12T16:42:34.162Z,19.70
2023-05-12T16:45:00.707Z,19.65
2023-05-12T16:47:27.382Z,19.64
2023-05-12T16:49:53.882Z,19.66
2023-05-12T16:52:20.514Z,19.65
2023-05-12T16:54:47.487Z,19.68
2023-05-12T16:57:13.900Z,19.76
2023-05-12T16:59:40.464Z,19.69
2023-05-12T17:02:08.369Z,19.73
2023-05-12T17:04:35.037Z,19.62
2023-05-12T17:07:01.584Z,19.79
2023-05-12T17:09:28.005Z,19.90
2023-05-12T17:11:54.463Z,19.89
2023-05-12T17:14:21.041Z,19.87
2023-05-12T17:16:47.521Z,19.86
2023-05-12T17:19:14.650Z,19.86
2023-05-12T17:21:42.281Z,19.87
2023-05-12T17:24:09.001Z,19.89
2023-05-12T17:26:35.523Z,19.88
2023-05-12T17:29:02.446Z,19.85
2023-05-12T17:31:29.148Z,19.79
2023-05-12T17:33:55.777Z,19.80
2023-05-12T17:36:22.277Z,19.80
2023-05-12T17:38:50.494Z,19.80
2023-05-12T17:41:17.092Z,19.79
2023-05-12T17:43:43.613Z,19.80
2023-05-12T17:46:10.148Z,19.79
2023-05-12T17:48:38.331Z,19.89
2023-05-12T17:51:05.121Z,19.92
2023-05-12T17:53:31.880Z,19.90
2023-05-12T17:55:58.936Z,19.99
2023-05-12T17:58:25.554Z,19.89
2023-05-12T18:00:52.054Z,19.85
2023-05-12T18:03:23.447Z,19.80
2023-05-12T18:05:51.142Z,19.74
2023-05-12T18:08:17.577Z,19.71
2023-05-12T18:10:44.170Z,19.58
2023-05-12T18:13:10.849Z,19.51
2023-05-12T18:15:37.279Z,19.49
2023-05-12T18:18:03.908Z,19.43
2023-05-12T18:20:30.417Z,19.30
2023-05-12T18:22:56.880Z,19.24
2023-05-12T18:25:23.533Z,19.20
2023-05-12T18:27:50.192Z,19.18
2023-05-12T18:30:16.630Z,19.06
2023-05-12T18:32:43.266Z,18.92
2023-05-12T18:35:09.877Z,18.76
2023-05-12T18:37:36.265Z,18.84
2023-05-12T18:40:02.688Z,18.72
2023-05-12T18:42:29.218Z,18.59
2023-05-12T18:44:55.770Z,18.48
2023-05-12T18:47:22.271Z,18.47
2023-05-12T18:49:48.818Z,18.39
2023-05-12T18:52:15.283Z,18.30
2023-05-12T18:54:41.993Z,18.34
2023-05-12T18:57:08.710Z,18.26
2023-05-12T18:59:35.124Z,18.18
2023-05-12T19:02:01.772Z,18.16
2023-05-12T19:04:28.300Z,18.12
2023-05-12T19:06:54.785Z,18.03
2023-05-12T19:09:21.287Z,18.01
2023-05-12T19:11:48.099Z,17.98
2023-05-12T19:14:16.637Z,17.94
2023-05-12T19:16:43.404Z,17.91
2023-05-12T19:19:10.057Z,17.88
2023-05-12T19:21:36.831Z,17.87
2023-05-12T19:24:03.414Z,17.85
2023-05-12T19:26:29.906Z,17.82
2023-05-12T19:28:56.298Z,17.80
2023-05-12T19:31:22.842Z,17.75
2023-05-12T19:33:49.429Z,17.72
2023-05-12T19:36:15.901Z,17.61
2023-05-12T19:38:44.113Z,17.68
2023-05-12T19:41:10.994Z,17.72
2023-05-12T19:43:37.437Z,17.68
2023-05-12T19:46:03.952Z,17.65
2023-05-12T19:48:30.667Z,17.70
2023-05-12T19:50:57.166Z,17.51
2023-05-12T19:53:23.549Z,17.56
2023-05-12T19:55:50.002Z,17.54
2023-05-12T19:58:16.443Z,17.48
2023-05-12T20:00:42.869Z,17.44
2023-05-12T20:03:09.464Z,17.38
2023-05-12T20:05:37.593Z,17.34
2023-05-12T20:08:04.338Z,17.31
2023-05-12T20:10:30.880Z,17.29
2023-05-12T20:12:57.452Z,17.21
2023-05-12T20:15:23.884Z,17.18
2023-05-12T20:17:50.346Z,17.16
2023-05-12T20:20:16.807Z,17.14
2023-05-12T20:22:43.323Z,17.11
2023-05-12T20:25:12.355Z,17.02
2023-05-12T20:27:38.783Z,17.05
2023-05-12T20:30:06.394Z,16.94
2023-05-12T20:32:32.875Z,16.98
2023-05-12T20:34:59.699Z,16.97
2023-05-12T20:37:26.289Z,16.96
2023-05-12T20:39:53.918Z,16.96
2023-05-12T20:42:20.526Z,16.94
2023-05-12T20:44:47.076Z,16.91
2023-05-12T20:47:13.560Z,16.88
2023-05-12T20:49:40.287Z,16.87
2023-05-12T20:52:07.731Z,16.84
2023-05-12T20:54:34.182Z,16.79
2023-05-12T20:57:00.935Z,16.76
2023-05-12T20:59:27.319Z,16.71
2023-05-12T21:01:53.741Z,16.66
2023-05-12T21:04:20.431Z,16.63
2023-05-12T21:06:47.177Z,16.62
2023-05-12T21:09:13.827Z,16.59
2023-05-12T21:11:40.248Z,16.59
2023-05-12T21:14:06.641Z,16.61
2023-05-12T21:16:33.135Z,16.60
2023-05-12T21:18:59.674Z,16.56
2023-05-12T21:21:26.246Z,16.55
2023-05-12T21:23:52.683Z,16.55
2023-05-12T21:26:19.134Z,16.54
2023-05-12T21:28:45.648Z,16.54
2023-05-12T21:31:12.080Z,16.54
2023-05-12T21:33:38.617Z,16.48
2023-05-12T21:36:05.605Z,16.50
2023-05-12T21:38:32.908Z,16.47
2023-05-12T21:40:59.360Z,16.45
2023-05-12T21:43:25.780Z,16.45
2023-05-12T21:45:52.436Z,16.42
2023-05-12T21:48:19.321Z,16.38
2023-05-12T21:50:45.759Z,16.37
2023-05-12T21:53:12.216Z,16.33
2023-05-12T21:55:40.362Z,16.30
2023-05-12T21:58:06.812Z,16.27
2023-05-12T22:00:33.307Z,16.29
2023-05-12T22:02:59.755Z,16.26
2023-05-12T22:05:26.656Z,16.28
2023-05-12T22:07:53.072Z,16.30
2023-05-12T22:10:19.669Z,16.31
2023-05-12T22:12:46.520Z,16.36
2023-05-12T22:15:13.058Z,16.39
2023-05-12T22:17:39.553Z,16.37
2023-05-12T22:20:06.691Z,16.39
2023-05-12T22:22:33.135Z,16.33
2023-05-12T22:24:59.605Z,16.38
2023-05-12T22:27:26.120Z,16.37
2023-05-12T22:29:52.606Z,16.42
2023-05-12T22:32:19.066Z,16.42
2023-05-12T22:34:45.628Z,16.44
2023-05-12T22:37:12.054Z,16.42
2023-05-12T22:39:38.693Z,16.44
2023-05-12T22:42:06.019Z,16.43
2023-05-12T22:44:32.574Z,16.42
2023-05-12T22:46:59.082Z,16.43
2023-05-12T22:49:25.651Z,16.43
2023-05-12T22:51:52.194Z,16.44
2023-05-12T22:54:18.689Z,16.42
2023-05-12T22:56:45.208Z,16.38
2023-05-12T22:59:11.668Z,16.37
2023-05-12T23:01:38.101Z,16.36
2023-05-12T23:04:04.582Z,16.36
2023-05-12T23:06:31.174Z,16.33
2023-05-12T23:08:57.870Z,16.31
2023-05-12T23:11:24.423Z,16.18
2023-05-12T23:13:50.878Z,16.21
2023-05-12T23:16:17.381Z,16.20
2023-05-12T23:18:43.848Z,16.17
2023-05-12T23:21:10.295Z,16.13
2023-05-12T23:23:36.698Z,16.10
2023-05-12T23:26:03.082Z,16.07
2023-05-12T23:28:29.517Z,15.95
2023-05-12T23:30:56.118Z,15.90
2023-05-12T23:33:22.769Z,15.75
2023-05-12T23:35:49.640Z,15.76
2023-05-12T23:38:16.258Z,15.68
2023-05-12T23:40:42.718Z,15.63
2023-05-12T23:43:09.209Z,15.58
2023-05-12T23:45:35.939Z,15.53
2023-05-12T23:48:02.691Z,15.41
2023-05-12T23:50:29.271Z,15.40
2023-05-12T23:52:56.408Z,15.36
2023-05-12T23:55:23.330Z,15.33
2023-05-12T23:57:49.820Z,15.22
